Latest Weather Observations for Gosford

IDN60901

Issued at 6:51 pm EST Saturday 23 September 2017 (issued every 10 minutes, with the page automatically refreshed every 10 minutes)

About weather observations | Map of Sydney area stations | Latest observations for Sydney area | Other Formats
Station Details ID: 061425 Name: GOSFORD AWS Lat: -33.44 Lon: 151.36 Height: 7.0 m
Data from the previous 72 hours. | See also: Recent months at Gosford
Date/Time
EST
Temp
°C
App
Temp
°C
Dew
Point
°C
Rel
Hum
%
Delta-T
°C
Wind Press
QNH
hPa
Press
MSL
hPa
Rain since
9am
mm
Dir  Spd
km/h
Gust
km/h
Spd
kts
Gust
kts
23/06:30pm 26.5 24.7 7.0 29 10.3 NE 6 9 3 5 - - 0.0
23/06:00pm 27.1 25.7 9.0 32 9.9 NE 6 11 3 6 - - 0.0
23/05:30pm 27.6 26.4 9.4 32 10.1 ENE 6 9 3 5 - - 0.0
23/05:00pm 29.1 27.5 8.7 28 11.2 NE 7 11 4 6 - - 0.0
23/04:30pm 29.3 27.4 8.9 28 11.3 NE 9 15 5 8 - - 0.0
23/04:00pm 29.4 25.7 7.9 26 11.7 NE 17 26 9 14 - - 0.0
23/03:30pm 31.3 27.6 6.4 21 13.4 ENE 15 22 8 12 - - 0.0
23/03:00pm 32.8 28.9 5.4 18 14.6 ENE 15 28 8 15 - - 0.0
23/02:30pm 33.6 29.3 5.2 17 15.1 ENE 17 28 9 15 - - 0.0
23/02:00pm 33.1 29.6 5.6 18 14.7 NE 13 24 7 13 - - 0.0
23/01:30pm 32.3 29.2 5.7 19 14.2 NE 11 19 6 10 - - 0.0
23/01:00pm 31.1 28.9 5.5 20 13.5 NE 6 9 3 5 - - 0.0
23/12:30pm 28.3 25.5 5.2 23 11.9 NNE 9 15 5 8 - - 0.0
23/12:00pm 27.9 24.4 3.6 21 12.2 NNE 11 19 6 10 - - 0.0
23/11:30am 28.8 24.7 2.1 18 13.1 N 13 20 7 11 - - 0.0
23/11:00am 26.2 23.3 2.8 22 11.4 NE 7 13 4 7 - - 0.0
23/10:30am 25.8 22.6 3.1 23 11.1 NE 9 15 5 8 - - 0.0
23/10:21am 25.6 22.5 3.6 24 10.9 NNE 9 15 5 8 - - 0.0
23/10:00am 20.6 20.6 11.0 54 5.3 N 2 11 1 6 - - 0.0
23/09:30am 20.2 19.4 9.5 50 5.7 WSW 4 7 2 4 - - 0.0
23/09:00am 20.5 19.4 10.0 51 5.6 NE 6 9 3 5 - - 0.0
23/08:30am 17.7 17.4 10.1 61 4.0 SW 2 6 1 3 - - 0.0
23/08:00am 16.8 16.8 9.7 63 3.7 CALM 0 6 0 3 - - 0.0
23/07:30am 15.6 15.5 9.3 66 3.2 CALM 0 0 0 0 - - 0.0
23/07:00am 13.8 13.8 9.8 77 2.1 CALM 0 0 0 0 - - 0.0
23/06:30am 11.4 11.0 8.4 82 1.5 CALM 0 0 0 0 - - 0.0
23/06:00am 10.7 10.1 7.6 81 1.5 CALM 0 0 0 0 - - 0.0
23/05:30am 10.9 10.4 7.8 81 1.5 CALM 0 0 0 0 - - 0.0
23/05:00am 11.9 11.5 8.2 78 1.8 CALM 0 0 0 0 - - 0.0
23/04:30am 12.1 11.7 8.4 78 1.8 CALM 0 0 0 0 - - 0.0
23/04:00am 12.3 11.9 8.2 76 2.0 CALM 0 0 0 0 - - 0.0
23/03:30am 12.8 12.5 8.7 76 2.0 CALM 0 0 0 0 - - 0.0
23/03:00am 13.0 12.8 9.1 77 2.0 CALM 0 0 0 0 - - 0.0
23/02:30am 13.6 12.7 9.1 74 2.3 NE 4 6 2 3 - - 0.0
23/02:00am 12.9 12.4 9.2 78 1.9 S 2 6 1 3 - - 0.0
23/01:30am 13.2 12.5 8.5 73 2.3 NW 2 4 1 2 - - 0.0
23/01:00am 13.1 12.6 8.0 71 2.5 CALM 0 0 0 0 - - 0.0
23/12:30am 13.9 13.6 8.7 71 2.6 CALM 0 0 0 0 - - 0.0
23/12:00am 14.0 13.7 8.6 70 2.7 CALM 0 2 0 1 - - 0.0
 
Date/Time
EST
Temp
°C
App
Temp
°C
Dew
Point
°C
Rel
Hum
%
Delta-T
°C
Wind Press
QNH
hPa
Press
MSL
hPa
Rain since
9am
mm
Dir  Spd
km/h
Gust
km/h
Spd
kts
Gust
kts
22/11:30pm 15.3 14.5 8.1 62 3.6 NNE 2 4 1 2 - - 0.0
22/11:00pm 15.0 13.7 7.5 61 3.7 NE 4 9 2 5 - - 0.0
22/10:30pm 16.6 16.0 7.3 54 4.6 CALM 0 0 0 0 - - 0.0
22/10:00pm 17.9 16.8 7.0 49 5.4 NNE 2 6 1 3 - - 0.0
22/09:30pm 18.8 17.6 6.6 45 6.1 NE 2 4 1 2 - - 0.0
22/09:00pm 21.7 19.6 5.6 35 8.0 N 6 13 3 7 - - 0.0
22/08:30pm 22.3 19.9 5.3 33 8.5 N 7 13 4 7 - - 0.0
22/08:00pm 22.9 19.6 4.4 30 9.1 NNE 11 22 6 12 - - 0.0
22/07:30pm 22.7 19.8 4.7 31 8.9 NNE 9 20 5 11 - - 0.0
22/07:00pm 22.7 20.0 5.6 33 8.6 NNE 9 19 5 10 - - 0.0
22/06:30pm 23.1 20.5 6.0 33 8.7 NNE 9 19 5 10 - - 0.0
22/06:00pm 22.6 21.4 8.0 39 7.7 ENE 4 9 2 5 - - 0.0
22/05:30pm 24.0 21.9 9.9 41 7.7 ENE 11 15 6 8 - - 0.0
22/05:00pm 25.4 23.6 10.8 40 8.2 E 11 17 6 9 - - 0.0
22/04:30pm 27.5 25.2 5.7 25 11.3 E 7 15 4 8 - - 0.0
22/04:00pm 28.6 25.6 2.0 18 13.0 E 7 15 4 8 - - 0.0
22/03:30pm 29.1 25.0 -0.1 15 13.8 E 11 17 6 9 - - 0.0
22/03:00pm 29.5 24.2 -0.8 14 14.2 E 17 24 9 13 - - 0.0
22/02:30pm 30.5 27.3 1.0 15 14.4 ESE 7 15 4 8 - - 0.0
22/02:00pm 31.4 27.4 -5.2 9 16.1 NW 7 15 4 8 - - 0.0
22/01:30pm 30.0 26.5 -2.5 12 14.9 SE 6 9 3 5 - - 0.0
22/01:00pm 30.7 26.4 -4.4 10 15.6 WNW 9 17 5 9 - - 0.0
22/12:30pm 29.9 25.4 -6.4 9 15.5 NW 9 20 5 11 - - 0.0
22/12:00pm 29.3 24.4 -6.8 9 15.2 WNW 11 24 6 13 - - 0.0
22/11:30am 29.1 24.3 -5.6 10 14.9 WNW 11 20 6 11 - - 0.0
22/11:00am 28.7 23.5 -5.9 10 14.7 NW 13 20 7 11 - - 0.0
22/10:30am 27.9 22.8 -5.2 11 14.2 WNW 13 24 7 13 - - 0.0
22/10:00am 27.3 22.3 -4.6 12 13.7 WNW 13 24 7 13 - - 0.0
22/09:30am 26.5 23.1 -2.2 15 12.8 WNW 6 17 3 9 - - 0.0
22/09:00am 24.6 21.0 0.8 21 11.1 NW 9 17 5 9 - - 0.0
22/08:30am 21.0 20.4 7.6 42 6.9 CALM 0 4 0 2 - - 0.0
22/08:00am 18.2 16.9 6.1 45 6.0 NE 2 7 1 4 - - 0.0
22/07:30am 14.9 14.0 9.3 69 2.9 NE 4 6 2 3 - - 0.0
22/07:00am 11.2 10.1 7.1 76 2.0 E 2 4 1 2 - - 0.0
22/06:30am 9.1 8.1 5.5 78 1.6 CALM 0 0 0 0 - - 0.0
22/06:00am 8.4 7.3 5.0 79 1.5 CALM 0 4 0 2 - - 0.0
22/05:30am 9.4 8.4 5.8 78 1.6 CALM 0 4 0 2 - - 0.0
22/05:00am 8.7 7.7 5.6 81 1.4 CALM 0 0 0 0 - - 0.0
22/04:30am 8.4 6.7 5.9 84 1.1 NE 4 6 2 3 - - 0.0
22/04:00am 9.1 8.3 6.7 85 1.1 CALM 0 0 0 0 - - 0.0
22/03:30am 9.5 8.9 7.4 87 1.0 CALM 0 0 0 0 - - 0.0
22/03:00am 9.9 9.4 7.7 86 1.1 CALM 0 0 0 0 - - 0.0
22/02:30am 10.3 10.0 8.7 90 0.8 CALM 0 0 0 0 - - 0.0
22/02:00am 10.5 10.2 8.8 89 0.8 CALM 0 0 0 0 - - 0.0
22/01:30am 10.6 10.3 8.7 88 0.9 CALM 0 0 0 0 - - 0.0
22/01:00am 11.6 11.6 9.9 89 0.9 CALM 0 0 0 0 - - 0.0
22/12:30am 11.6 11.5 9.5 87 1.1 CALM 0 0 0 0 - - 0.0
22/12:00am 12.6 12.7 10.3 86 1.2 CALM 0 0 0 0 - - 0.0
 
Date/Time
EST
Temp
°C
App
Temp
°C
Dew
Point
°C
Rel
Hum
%
Delta-T
°C
Wind Press
QNH
hPa
Press
MSL
hPa
Rain since
9am
mm
Dir  Spd
km/h
Gust
km/h
Spd
kts
Gust
kts
21/11:30pm 13.4 13.6 10.6 83 1.5 CALM 0 0 0 0 - - 0.0
21/11:00pm 13.7 13.8 10.3 80 1.8 CALM 0 0 0 0 - - 0.0
21/10:30pm 14.7 14.0 10.1 74 2.4 ENE 4 6 2 3 - - 0.0
21/10:00pm 15.9 16.1 10.4 70 2.9 CALM 0 2 0 1 - - 0.0
21/09:30pm 19.4 17.6 10.7 57 4.7 N 11 17 6 9 - - 0.0
21/09:00pm 19.5 17.4 11.3 59 4.5 N 13 19 7 10 - - 0.0
21/08:30pm 19.6 18.0 11.6 60 4.4 N 11 19 6 10 - - 0.0
21/08:00pm 19.6 18.5 12.1 62 4.2 NNE 9 19 5 10 - - 0.0
21/07:30pm 19.3 18.5 11.8 62 4.1 NNE 7 13 4 7 - - 0.0
21/07:00pm 18.9 18.1 11.2 61 4.2 NNE 6 9 3 5 - - 0.0
21/06:30pm 19.6 18.7 11.4 59 4.5 NE 7 13 4 7 - - 0.0
21/06:00pm 19.6 18.8 11.6 60 4.4 NE 7 13 4 7 - - 0.0
21/05:30pm 19.9 19.0 11.4 58 4.7 ENE 7 9 4 5 - - 0.0
21/05:00pm 20.9 19.3 11.5 55 5.2 ENE 11 15 6 8 - - 0.0
21/04:30pm 21.3 20.1 12.7 58 4.9 ENE 11 17 6 9 - - 0.0
21/04:00pm 21.5 19.2 11.8 54 5.4 ENE 15 24 8 13 - - 0.0
21/03:30pm 22.5 20.2 11.9 51 6.0 ENE 15 20 8 11 - - 0.0
21/03:00pm 23.2 20.8 11.3 47 6.6 E 15 24 8 13 - - 0.0
21/02:30pm 24.3 21.4 8.3 36 8.5 E 13 20 7 11 - - 0.0
21/02:00pm 24.3 21.3 9.1 38 8.2 E 15 22 8 12 - - 0.0
21/01:30pm 24.5 21.6 9.6 39 8.1 ENE 15 26 8 14 - - 0.0
21/01:00pm 25.2 23.2 8.7 35 8.9 NE 9 20 5 11 - - 0.0
21/12:30pm 24.6 23.2 9.0 37 8.4 NE 6 13 3 7 - - 0.0
21/12:00pm 24.6 23.2 9.0 37 8.4 ENE 6 11 3 6 - - 0.0
21/11:30am 23.4 21.5 6.7 34 8.6 N 6 11 3 6 - - 0.0
21/11:00am 22.5 20.8 7.5 38 7.8 E 6 9 3 5 - - 0.0
21/10:30am 21.9 20.4 8.4 42 7.1 NE 6 9 3 5 - - 0.0
21/10:00am 20.9 19.8 8.5 45 6.5 N 4 9 2 5 - - 0.0
21/09:30am 19.1 19.3 10.6 58 4.6 CALM 0 6 0 3 - - 0.0
21/09:00am 16.3 16.0 10.2 67 3.2 SSE 2 4 1 2 - - 0.0
21/08:30am 14.4 14.6 10.4 77 2.1 CALM 0 0 0 0 - - 0.0
21/08:00am 12.6 12.6 9.8 83 1.4 CALM 0 0 0 0 - - 0.0
21/07:30am 11.4 11.5 10.1 92 0.7 CALM 0 0 0 0 - - 0.0
21/07:00am 9.3 9.0 8.7 96 0.3 CALM 0 0 0 0 - - 0.0
21/06:30am 7.3 6.6 6.9 97 0.2 CALM 0 0 0 0 - - 0.0
21/06:00am 6.9 6.1 6.5 97 0.2 CALM 0 0 0 0 - - 0.0
21/05:30am 6.6 5.7 6.0 96 0.3 CALM 0 0 0 0 - - 0.0
21/05:00am 7.3 6.6 6.9 97 0.2 CALM 0 0 0 0 - - 0.0
21/04:30am 7.1 6.3 6.4 95 0.3 CALM 0 0 0 0 - - 0.0
21/04:00am 7.4 6.6 6.7 95 0.3 CALM 0 0 0 0 - - 0.0
21/03:30am 7.5 6.7 6.6 94 0.4 CALM 0 0 0 0 - - 0.0
21/03:00am 8.3 7.8 7.7 96 0.3 CALM 0 0 0 0 - - 0.0
21/02:30am 8.3 7.7 7.5 95 0.4 CALM 0 0 0 0 - - 0.0
21/02:00am 8.4 7.8 7.5 94 0.4 CALM 0 0 0 0 - - 0.0
21/01:30am 8.7 8.2 7.8 94 0.4 CALM 0 0 0 0 - - 0.0
21/01:00am 8.8 8.3 7.7 93 0.5 CALM 0 0 0 0 - - 0.0
21/12:30am 9.1 8.6 8.0 93 0.5 CALM 0 0 0 0 - - 0.0
21/12:00am 9.3 8.9 8.2 93 0.5 CALM 0 0 0 0 - - 0.0
 
Date/Time
EST
Temp
°C
App
Temp
°C
Dew
Point
°C
Rel
Hum
%
Delta-T
°C
Wind Press
QNH
hPa
Press
MSL
hPa
Rain since
9am
mm
Dir  Spd
km/h
Gust
km/h
Spd
kts
Gust
kts
20/11:30pm 9.4 9.0 8.2 92 0.6 CALM 0 0 0 0 - - 0.0
20/11:00pm 9.8 9.5 8.6 92 0.6 CALM 0 0 0 0 - - 0.0
20/10:30pm 9.8 9.4 8.4 91 0.7 CALM 0 0 0 0 - - 0.0
20/10:00pm 10.4 10.2 9.0 91 0.7 CALM 0 0 0 0 - - 0.0
20/09:30pm 10.6 10.4 9.0 90 0.8 CALM 0 0 0 0 - - 0.0
20/09:00pm 11.0 10.8 8.9 87 1.0 CALM 0 0 0 0 - - 0.0
20/08:30pm 11.7 11.6 9.3 85 1.2 CALM 0 0 0 0 - - 0.0
20/08:00pm 11.9 11.8 9.3 84 1.3 CALM 0 0 0 0 - - 0.0
20/07:30pm 12.8 12.0 9.6 81 1.6 NE 4 6 2 3 - - 0.0
20/07:00pm 13.6 12.8 9.8 78 2.0 NNE 4 7 2 4 - - 0.0

Latest Capital City Observations: Canberra | Sydney | Melbourne | Brisbane | Adelaide | Perth | Hobart | Darwin

Other Formats:

Comma delimited format used in spreadsheet applications
http://www.bom.gov.au/fwo/IDN60901/IDN60901.94782.axf

JavaScript Object Notation format (JSON) in row-major order
http://www.bom.gov.au/fwo/IDN60901/IDN60901.94782.json